createdAt,value
2022-10-22T00:00:45.932Z,85.20
2022-10-22T00:03:12.842Z,85.23
2022-10-22T00:05:39.257Z,85.64
2022-10-22T00:08:05.626Z,85.36
2022-10-22T00:10:32.258Z,85.08
2022-10-22T00:12:58.644Z,85.35
2022-10-22T00:15:25.107Z,85.56
2022-10-22T00:17:51.553Z,85.37
2022-10-22T00:20:18.032Z,85.27
2022-10-22T00:22:44.504Z,85.81
2022-10-22T00:25:10.952Z,85.06
2022-10-22T00:27:37.507Z,85.40
2022-10-22T00:30:04.271Z,85.06
2022-10-22T00:32:30.644Z,85.57
2022-10-22T00:34:57.005Z,86.23
2022-10-22T00:37:23.591Z,85.71
2022-10-22T00:39:49.984Z,86.01
2022-10-22T00:42:19.674Z,86.25
2022-10-22T00:45:01.321Z,86.32
2022-10-22T00:47:28.842Z,86.57
2022-10-22T00:49:56.106Z,86.11
2022-10-22T00:52:22.712Z,86.87
2022-10-22T00:54:50.138Z,86.56
2022-10-22T00:57:17.631Z,86.60
2022-10-22T00:59:44.053Z,86.68
2022-10-22T01:02:10.510Z,86.60
2022-10-22T01:04:36.954Z,87.03
2022-10-22T01:07:03.910Z,86.75
2022-10-22T01:09:33.197Z,86.58
2022-10-22T01:12:29.054Z,86.74
2022-10-22T01:15:04.506Z,86.54
2022-10-22T01:17:30.850Z,87.11
2022-10-22T01:20:09.355Z,87.19
2022-10-22T01:22:35.787Z,87.39
2022-10-22T01:25:08.331Z,86.72
2022-10-22T01:27:40.674Z,87.04
2022-10-22T01:30:08.633Z,87.21
2022-10-22T01:32:41.447Z,86.95
2022-10-22T01:35:09.354Z,86.27
2022-10-22T01:37:39.361Z,86.29
2022-10-22T01:40:07.708Z,86.35
2022-10-22T01:42:34.221Z,86.37
2022-10-22T01:45:00.645Z,86.47
2022-10-22T01:47:33.114Z,86.47
2022-10-22T01:50:05.229Z,86.66
2022-10-22T01:52:50.542Z,86.28
2022-10-22T01:55:35.562Z,87.08
2022-10-22T01:58:01.934Z,86.31
2022-10-22T02:00:28.490Z,86.25
2022-10-22T02:03:05.081Z,86.29
2022-10-22T02:05:40.268Z,86.16
2022-10-22T02:08:09.798Z,86.68
2022-10-22T02:10:38.154Z,86.27
2022-10-22T02:13:08.169Z,86.85
2022-10-22T02:15:36.742Z,86.46
2022-10-22T02:18:04.144Z,86.50
2022-10-22T02:20:32.798Z,86.51
2022-10-22T02:22:59.976Z,86.13
2022-10-22T02:25:29.378Z,87.05
2022-10-22T02:28:01.658Z,86.89
2022-10-22T02:30:28.140Z,87.17
2022-10-22T02:33:00.037Z,87.77
2022-10-22T02:35:27.684Z,87.97
2022-10-22T02:37:54.559Z,87.56
2022-10-22T02:40:21.478Z,88.17
2022-10-22T02:42:48.450Z,87.98
2022-10-22T02:45:15.747Z,87.42
2022-10-22T02:47:42.126Z,87.64
2022-10-22T02:50:10.327Z,88.17
2022-10-22T02:52:37.753Z,87.49
2022-10-22T02:55:04.792Z,88.07
2022-10-22T02:57:31.187Z,88.81
2022-10-22T02:59:57.595Z,88.82
2022-10-22T03:02:24.100Z,88.10
2022-10-22T03:04:50.476Z,87.74
2022-10-22T03:07:16.916Z,87.55
2022-10-22T03:09:43.342Z,87.94
2022-10-22T03:12:09.702Z,88.23
2022-10-22T03:14:36.095Z,87.63
2022-10-22T03:17:02.482Z,87.43
2022-10-22T03:19:28.890Z,87.37
2022-10-22T03:21:57.274Z,87.33
2022-10-22T03:24:26.085Z,87.87
2022-10-22T03:26:52.999Z,87.40
2022-10-22T03:29:22.033Z,87.27
2022-10-22T03:31:48.408Z,87.50
2022-10-22T03:34:15.116Z,87.24
2022-10-22T03:36:41.968Z,87.10
2022-10-22T03:39:09.083Z,86.70
2022-10-22T03:41:35.610Z,87.17
2022-10-22T03:44:03.109Z,87.19
2022-10-22T03:46:29.618Z,86.73
2022-10-22T03:48:56.059Z,86.88
2022-10-22T03:51:22.456Z,87.10
2022-10-22T03:53:48.839Z,86.77
2022-10-22T03:56:15.234Z,86.73
2022-10-22T03:58:41.867Z,87.13
2022-10-22T04:01:12.623Z,87.06
2022-10-22T04:03:39.793Z,86.79
2022-10-22T04:06:07.886Z,86.48
2022-10-22T04:08:34.829Z,86.73
2022-10-22T04:11:01.568Z,87.00
2022-10-22T04:13:28.044Z,87.05
2022-10-22T04:15:54.419Z,86.82
2022-10-22T04:18:22.467Z,86.64
2022-10-22T04:20:48.907Z,86.71
2022-10-22T04:23:15.284Z,86.66
2022-10-22T04:25:41.646Z,87.18
2022-10-22T04:28:08.696Z,86.97
2022-10-22T04:30:35.558Z,86.79
2022-10-22T04:33:02.023Z,86.90
2022-10-22T04:35:28.975Z,87.34
2022-10-22T04:37:55.897Z,87.70
2022-10-22T04:40:22.376Z,87.44
2022-10-22T04:42:48.749Z,87.30
2022-10-22T04:45:15.769Z,87.59
2022-10-22T04:47:42.489Z,88.23
2022-10-22T04:50:09.223Z,87.58
2022-10-22T04:52:35.573Z,87.65
2022-10-22T04:55:01.974Z,87.99
2022-10-22T04:57:31.607Z,87.98
2022-10-22T04:59:58.001Z,87.67
2022-10-22T05:02:24.578Z,87.41
2022-10-22T05:04:50.944Z,87.78
2022-10-22T05:07:17.341Z,87.80
2022-10-22T05:09:43.795Z,87.84
2022-10-22T05:12:10.240Z,87.73
2022-10-22T05:14:37.875Z,87.80
2022-10-22T05:17:06.995Z,87.97
2022-10-22T05:19:33.588Z,87.94
2022-10-22T05:22:01.449Z,87.96
2022-10-22T05:24:28.610Z,88.02
2022-10-22T05:26:56.137Z,87.95
2022-10-22T05:29:22.971Z,88.29
2022-10-22T05:31:49.363Z,87.97
2022-10-22T05:34:15.789Z,88.17
2022-10-22T05:36:42.328Z,88.24
2022-10-22T05:39:08.778Z,88.36
2022-10-22T05:41:38.476Z,88.35
2022-10-22T05:44:05.144Z,88.84
2022-10-22T05:46:34.412Z,88.82
2022-10-22T05:49:02.448Z,88.81
2022-10-22T05:51:30.012Z,89.46
2022-10-22T05:53:58.160Z,89.59
2022-10-22T05:56:25.220Z,90.10
2022-10-22T05:58:51.811Z,90.18
2022-10-22T06:01:19.868Z,90.01
2022-10-22T06:03:47.242Z,90.37
2022-10-22T06:06:19.657Z,90.17
2022-10-22T06:08:50.764Z,90.38
2022-10-22T06:11:17.963Z,90.73
2022-10-22T06:13:45.139Z,90.58
2022-10-22T06:16:11.727Z,91.57
2022-10-22T06:18:38.153Z,91.28
2022-10-22T06:21:12.581Z,91.53
2022-10-22T06:23:39.486Z,91.32
2022-10-22T06:26:06.482Z,92.88
2022-10-22T06:28:33.602Z,92.97
2022-10-22T06:31:00.849Z,93.52
2022-10-22T06:33:28.029Z,94.23
2022-10-22T06:35:54.483Z,94.37
2022-10-22T06:38:21.096Z,93.45
2022-10-22T06:40:47.492Z,93.83
2022-10-22T06:43:14.602Z,93.35
2022-10-22T06:45:40.978Z,93.17
2022-10-22T06:48:07.422Z,93.37
2022-10-22T06:50:34.611Z,93.84
2022-10-22T06:53:01.007Z,93.26
2022-10-22T06:55:27.455Z,92.92
2022-10-22T06:57:54.779Z,92.76
2022-10-22T07:00:21.576Z,92.88
2022-10-22T07:02:56.440Z,93.14
2022-10-22T07:05:25.528Z,93.11
2022-10-22T07:07:51.882Z,92.90
2022-10-22T07:10:18.322Z,93.23
2022-10-22T07:12:44.750Z,92.58
2022-10-22T07:15:11.536Z,93.15
2022-10-22T07:17:44.460Z,93.12
2022-10-22T07:20:11.126Z,93.37
2022-10-22T07:22:37.491Z,93.53
2022-10-22T07:25:07.316Z,93.63
2022-10-22T07:27:33.960Z,93.69
2022-10-22T07:30:01.494Z,93.67
2022-10-22T07:32:27.950Z,93.50
2022-10-22T07:34:54.341Z,93.83
2022-10-22T07:37:23.636Z,94.43
2022-10-22T07:39:50.016Z,93.94
2022-10-22T07:42:16.502Z,95.00
2022-10-22T07:44:43.031Z,94.31
2022-10-22T07:47:09.396Z,94.49
2022-10-22T07:49:35.783Z,95.06
2022-10-22T07:52:02.208Z,95.95
2022-10-22T07:54:28.587Z,95.40
2022-10-22T07:56:54.954Z,94.55
2022-10-22T07:59:21.367Z,94.92
2022-10-22T08:01:47.754Z,94.62
2022-10-22T08:04:14.313Z,95.51
2022-10-22T08:06:44.542Z,95.86
2022-10-22T08:09:13.688Z,94.54
2022-10-22T08:11:40.162Z,93.86
2022-10-22T08:14:06.518Z,92.99
2022-10-22T08:16:32.886Z,92.30
2022-10-22T08:18:59.281Z,91.77
2022-10-22T08:21:26.586Z,91.11
2022-10-22T08:23:52.956Z,90.83
2022-10-22T08:26:19.378Z,92.29
2022-10-22T08:28:45.771Z,92.56
2022-10-22T08:31:12.909Z,90.54
2022-10-22T08:33:39.715Z,90.68
2022-10-22T08:36:06.308Z,90.06
2022-10-22T08:38:32.707Z,90.09
2022-10-22T08:41:16.739Z,90.39
2022-10-22T08:43:49.201Z,90.24
2022-10-22T08:46:30.836Z,89.43
2022-10-22T08:49:00.087Z,89.53
2022-10-22T08:51:30.068Z,88.91
2022-10-22T08:54:21.930Z,88.22
2022-10-22T08:56:52.999Z,87.18
2022-10-22T08:59:25.510Z,87.46
2022-10-22T09:01:53.768Z,87.01
2022-10-22T09:04:25.234Z,87.09
2022-10-22T09:06:54.394Z,85.13
2022-10-22T09:09:21.203Z,85.32
2022-10-22T09:11:51.949Z,84.75
2022-10-22T09:14:22.812Z,84.48
2022-10-22T09:17:07.869Z,82.87
2022-10-22T09:19:43.313Z,82.80
2022-10-22T09:22:15.692Z,82.14
2022-10-22T09:24:45.187Z,81.31
2022-10-22T09:27:19.435Z,80.56
2022-10-22T09:29:47.206Z,80.59
2022-10-22T09:32:14.643Z,80.90
2022-10-22T09:34:43.580Z,80.75
2022-10-22T09:37:10.161Z,81.23
2022-10-22T09:39:40.989Z,79.87
2022-10-22T09:42:10.181Z,80.86
2022-10-22T09:44:37.465Z,80.37
2022-10-22T09:47:04.769Z,80.77
2022-10-22T09:49:33.798Z,80.35
2022-10-22T09:52:01.246Z,79.99
2022-10-22T09:54:38.731Z,79.81
2022-10-22T09:57:17.692Z,80.80
2022-10-22T09:59:45.131Z,81.06
2022-10-22T10:02:20.306Z,81.13
2022-10-22T10:05:02.103Z,81.05
2022-10-22T10:07:32.073Z,81.11
2022-10-22T10:09:58.790Z,81.11
2022-10-22T10:12:34.277Z,80.97
2022-10-22T10:15:08.266Z,81.15
2022-10-22T10:17:48.219Z,81.06
2022-10-22T10:20:17.412Z,81.07
2022-10-22T10:23:08.495Z,81.64
2022-10-22T10:25:40.820Z,81.92
2022-10-22T10:28:25.986Z,82.02
2022-10-22T10:30:57.274Z,81.64
2022-10-22T10:33:23.641Z,79.99
2022-10-22T10:35:50.023Z,80.35
2022-10-22T10:38:39.523Z,80.46
2022-10-22T10:41:11.648Z,80.49
2022-10-22T10:43:41.148Z,79.61
2022-10-22T10:46:26.462Z,78.43
2022-10-22T10:48:52.827Z,78.27
2022-10-22T10:51:36.982Z,78.28
2022-10-22T10:54:15.568Z,77.69
2022-10-22T10:56:45.772Z,77.85
2022-10-22T10:59:12.136Z,77.66
2022-10-22T11:01:47.378Z,77.52
2022-10-22T11:04:13.749Z,78.05
2022-10-22T11:06:40.610Z,77.76
2022-10-22T11:09:12.880Z,77.25
2022-10-22T11:11:44.251Z,77.36
2022-10-22T11:14:24.233Z,77.49
2022-10-22T11:16:57.959Z,76.99
2022-10-22T11:19:39.599Z,77.43
2022-10-22T11:22:26.937Z,77.40
2022-10-22T11:24:57.756Z,77.29
2022-10-22T11:27:33.767Z,77.36
2022-10-22T11:30:12.188Z,77.27
2022-10-22T11:32:40.023Z,77.48
2022-10-22T11:35:09.065Z,78.19
2022-10-22T11:37:36.100Z,77.20
2022-10-22T11:40:07.318Z,77.68
2022-10-22T11:42:33.655Z,77.94
2022-10-22T11:45:01.892Z,78.12
2022-10-22T11:47:29.666Z,78.02
2022-10-22T11:50:02.395Z,78.28
2022-10-22T11:52:31.766Z,78.10
2022-10-22T11:55:01.165Z,77.84
2022-10-22T11:57:27.772Z,77.35
2022-10-22T11:59:57.335Z,77.79
2022-10-22T12:02:23.752Z,77.84
2022-10-22T12:04:50.262Z,77.76
2022-10-22T12:07:33.430Z,77.66
2022-10-22T12:10:00.043Z,77.84
2022-10-22T12:12:28.826Z,78.77
2022-10-22T12:14:57.773Z,79.10
2022-10-22T12:17:24.970Z,78.95
2022-10-22T12:19:57.431Z,79.62
2022-10-22T12:22:28.073Z,79.56
2022-10-22T12:24:55.300Z,79.20
2022-10-22T12:27:25.782Z,78.75
2022-10-22T12:29:59.459Z,79.22
2022-10-22T12:32:36.442Z,79.15
2022-10-22T12:35:14.639Z,79.83
2022-10-22T12:37:41.321Z,79.94
2022-10-22T12:40:22.176Z,81.09
2022-10-22T12:42:49.774Z,80.48
2022-10-22T12:45:16.189Z,81.37
2022-10-22T12:47:46.647Z,81.12
2022-10-22T12:50:18.080Z,81.55
2022-10-22T12:52:44.636Z,81.64
2022-10-22T12:55:15.931Z,81.98
2022-10-22T12:57:42.573Z,81.82
2022-10-22T13:00:20.660Z,82.94
2022-10-22T13:02:47.637Z,83.08
2022-10-22T13:05:16.223Z,82.43
2022-10-22T13:07:44.449Z,83.52
2022-10-22T13:10:16.906Z,83.48
2022-10-22T13:12:45.103Z,84.98
2022-10-22T13:15:22.167Z,84.23
2022-10-22T13:17:51.560Z,85.10
2022-10-22T13:20:17.911Z,85.55
2022-10-22T13:22:54.743Z,86.25
2022-10-22T13:25:23.011Z,86.61
2022-10-22T13:27:51.032Z,86.65
2022-10-22T13:30:22.840Z,86.39
2022-10-22T13:32:54.718Z,86.42
2022-10-22T13:35:23.147Z,86.41
2022-10-22T13:37:49.553Z,87.12
2022-10-22T13:40:16.188Z,86.57
2022-10-22T13:42:42.912Z,86.85
2022-10-22T13:45:09.424Z,86.91
2022-10-22T13:47:35.879Z,87.49
2022-10-22T13:50:04.063Z,88.53
2022-10-22T13:52:36.321Z,88.88
2022-10-22T13:55:12.241Z,88.95
2022-10-22T13:57:38.624Z,89.94
2022-10-22T14:00:05.324Z,89.54
2022-10-22T14:02:31.724Z,89.64
2022-10-22T14:05:03.068Z,89.78
2022-10-22T14:07:29.482Z,90.07
2022-10-22T14:09:55.863Z,90.62
2022-10-22T14:12:22.455Z,91.76
2022-10-22T14:14:48.830Z,91.29
2022-10-22T14:17:16.891Z,91.39
2022-10-22T14:19:45.018Z,91.18
2022-10-22T14:22:20.532Z,91.27
2022-10-22T14:24:47.414Z,91.79
2022-10-22T14:27:15.002Z,91.91
2022-10-22T14:29:41.845Z,91.77
2022-10-22T14:32:15.447Z,91.95
2022-10-22T14:34:41.852Z,91.68
2022-10-22T14:37:19.094Z,91.92
2022-10-22T14:39:52.679Z,91.82
2022-10-22T14:42:19.558Z,92.21
2022-10-22T14:44:46.583Z,92.84
2022-10-22T14:47:12.976Z,93.56
2022-10-22T14:49:39.385Z,93.58
2022-10-22T14:52:05.765Z,93.75
2022-10-22T14:54:33.226Z,93.98
2022-10-22T14:56:59.591Z,93.66
2022-10-22T14:59:25.971Z,93.80
2022-10-22T15:01:52.348Z,93.84
2022-10-22T15:04:18.745Z,93.92
2022-10-22T15:06:45.143Z,94.00
2022-10-22T15:09:11.598Z,94.01
2022-10-22T15:11:38.022Z,94.20
2022-10-22T15:14:04.397Z,93.96
2022-10-22T15:16:30.836Z,93.98
2022-10-22T15:18:57.374Z,93.86
2022-10-22T15:21:23.860Z,93.83
2022-10-22T15:23:50.383Z,93.54
2022-10-22T15:26:16.882Z,94.03
2022-10-22T15:28:43.545Z,94.12
2022-10-22T15:31:12.392Z,94.04
2022-10-22T15:33:38.791Z,94.46
2022-10-22T15:36:12.678Z,94.49
2022-10-22T15:38:39.371Z,94.46
2022-10-22T15:41:06.279Z,94.18
2022-10-22T15:43:33.096Z,94.15
2022-10-22T15:46:09.222Z,94.19
2022-10-22T15:48:35.787Z,94.08
2022-10-22T15:51:07.143Z,94.12
2022-10-22T15:53:33.503Z,94.24
2022-10-22T15:55:59.871Z,94.60
2022-10-22T15:58:26.286Z,94.46
2022-10-22T16:00:52.677Z,94.42
2022-10-22T16:03:19.160Z,94.58
2022-10-22T16:05:54.433Z,94.61
2022-10-22T16:08:21.113Z,94.67
2022-10-22T16:10:48.550Z,94.96
2022-10-22T16:13:15.160Z,94.62
2022-10-22T16:15:41.855Z,94.79
2022-10-22T16:18:08.412Z,94.84
2022-10-22T16:20:38.784Z,95.77
2022-10-22T16:23:05.226Z,96.07
2022-10-22T16:25:37.112Z,95.94
2022-10-22T16:28:03.535Z,96.11
2022-10-22T16:30:29.894Z,96.32
2022-10-22T16:32:56.267Z,96.23
2022-10-22T16:35:22.637Z,96.26
2022-10-22T16:37:49.025Z,96.28
2022-10-22T16:40:15.467Z,96.19
2022-10-22T16:42:42.176Z,96.84
2022-10-22T16:45:08.882Z,97.25
2022-10-22T16:47:35.300Z,97.14
2022-10-22T16:50:01.999Z,97.38
2022-10-22T16:52:28.474Z,97.40
2022-10-22T16:54:55.007Z,97.70
2022-10-22T16:57:21.455Z,97.62
2022-10-22T16:59:47.823Z,97.39
2022-10-22T17:02:14.196Z,97.15
2022-10-22T17:04:40.550Z,97.40
2022-10-22T17:07:06.920Z,97.75
2022-10-22T17:09:33.320Z,98.59
2022-10-22T17:11:59.690Z,98.32
2022-10-22T17:14:26.256Z,98.15
2022-10-22T17:16:55.575Z,97.55
2022-10-22T17:19:22.942Z,97.67
2022-10-22T17:21:50.981Z,97.44
2022-10-22T17:24:18.250Z,98.12
2022-10-22T17:26:45.038Z,99.12
2022-10-22T17:29:11.631Z,99.06
2022-10-22T17:31:39.182Z,98.90
2022-10-22T17:34:06.934Z,98.86
2022-10-22T17:36:35.931Z,98.79
2022-10-22T17:39:05.053Z,98.75
2022-10-22T17:41:32.610Z,98.47
2022-10-22T17:44:02.174Z,98.57
2022-10-22T17:46:29.764Z,98.50
2022-10-22T17:48:57.558Z,99.46
2022-10-22T17:51:24.716Z,98.74
2022-10-22T17:53:51.096Z,99.18
2022-10-22T17:56:19.100Z,98.91
2022-10-22T17:58:45.504Z,98.82
2022-10-22T18:01:19.926Z,98.66
2022-10-22T18:03:46.472Z,98.42
2022-10-22T18:06:13.234Z,98.55
2022-10-22T18:08:40.014Z,98.73
2022-10-22T18:11:07.875Z,98.61
2022-10-22T18:13:34.731Z,98.63
2022-10-22T18:16:01.207Z,98.56
2022-10-22T18:18:27.600Z,99.31
2022-10-22T18:20:54.390Z,99.33
2022-10-22T18:23:21.064Z,99.15
2022-10-22T18:25:48.730Z,100.00
2022-10-22T18:28:15.865Z,100.00
2022-10-22T18:30:42.765Z,99.92
2022-10-22T18:33:11.130Z,100.00
2022-10-22T18:35:37.488Z,100.00
2022-10-22T18:38:03.845Z,100.00
2022-10-22T18:40:30.434Z,99.92
2022-10-22T18:42:57.012Z,100.00
2022-10-22T18:45:23.383Z,100.00
2022-10-22T18:47:49.833Z,100.00
2022-10-22T18:50:16.278Z,100.00
2022-10-22T18:52:42.965Z,100.00
2022-10-22T18:55:09.652Z,100.00
2022-10-22T18:57:36.058Z,100.00
2022-10-22T19:00:02.468Z,100.00
2022-10-22T19:02:29.766Z,100.00
2022-10-22T19:04:56.130Z,100.00
2022-10-22T19:07:22.515Z,100.00
2022-10-22T19:09:48.972Z,100.00
2022-10-22T19:12:15.919Z,100.00
2022-10-22T19:14:42.770Z,100.00
2022-10-22T19:17:09.163Z,100.00
2022-10-22T19:19:35.569Z,100.00
2022-10-22T19:22:01.936Z,100.00
2022-10-22T19:24:28.472Z,100.00
2022-10-22T19:26:54.945Z,100.00
2022-10-22T19:29:21.589Z,100.00
2022-10-22T19:31:48.146Z,100.00
2022-10-22T19:34:14.662Z,100.00
2022-10-22T19:36:41.065Z,100.00
2022-10-22T19:39:07.753Z,100.00
2022-10-22T19:41:34.187Z,100.00
2022-10-22T19:44:01.086Z,100.00
2022-10-22T19:46:28.436Z,100.00
2022-10-22T19:48:57.116Z,100.00
2022-10-22T19:51:25.662Z,100.00
2022-10-22T19:53:58.204Z,100.00
2022-10-22T19:56:24.891Z,100.00
2022-10-22T19:58:51.340Z,100.00
2022-10-22T20:01:18.587Z,100.00
2022-10-22T20:03:45.432Z,100.00
2022-10-22T20:06:13.812Z,100.00
2022-10-22T20:08:40.631Z,100.00
2022-10-22T20:11:10.812Z,100.00
2022-10-22T20:16:09.458Z,100.00
2022-10-22T20:18:36.313Z,100.00
2022-10-22T20:21:10.797Z,100.00
2022-10-22T20:23:37.243Z,100.00
2022-10-22T20:26:04.567Z,100.00
2022-10-22T20:28:31.025Z,100.00
2022-10-22T20:30:57.421Z,100.00
2022-10-22T20:33:23.819Z,100.00
2022-10-22T20:36:04.330Z,100.00
2022-10-22T20:38:30.856Z,100.00
2022-10-22T20:41:01.104Z,100.00
2022-10-22T20:43:27.493Z,100.00
2022-10-22T20:45:53.841Z,100.00
2022-10-22T20:48:20.202Z,100.00
2022-10-22T20:50:46.600Z,100.00
2022-10-22T20:53:16.068Z,100.00
2022-10-22T20:55:43.222Z,100.00
2022-10-22T20:58:10.154Z,100.00
2022-10-22T21:00:39.204Z,100.00
2022-10-22T21:03:06.366Z,100.00
2022-10-22T21:05:32.780Z,100.00
2022-10-22T21:07:59.150Z,100.00
2022-10-22T21:10:27.987Z,100.00
2022-10-22T21:12:58.045Z,100.00
2022-10-22T21:15:24.484Z,100.00
2022-10-22T21:17:50.855Z,100.00
2022-10-22T21:20:18.782Z,100.00
2022-10-22T21:22:48.952Z,100.00
2022-10-22T21:25:15.407Z,100.00
2022-10-22T21:27:41.841Z,100.00
2022-10-22T21:30:08.423Z,100.00
2022-10-22T21:32:34.786Z,100.00
2022-10-22T21:35:01.212Z,100.00
2022-10-22T21:37:30.077Z,100.00
2022-10-22T21:39:56.764Z,100.00
2022-10-22T21:42:23.144Z,100.00
2022-10-22T21:44:49.600Z,100.00
2022-10-22T21:47:15.977Z,100.00
2022-10-22T21:49:42.383Z,100.00
2022-10-22T21:52:08.849Z,100.00
2022-10-22T21:54:37.386Z,100.00
2022-10-22T21:57:04.386Z,100.00
2022-10-22T21:59:32.329Z,100.00
2022-10-22T22:02:03.353Z,100.00
2022-10-22T22:04:32.159Z,100.00
2022-10-22T22:06:58.570Z,100.00
2022-10-22T22:09:24.992Z,100.00
2022-10-22T22:11:51.444Z,100.00
2022-10-22T22:14:17.802Z,100.00
2022-10-22T22:16:44.167Z,100.00
2022-10-22T22:19:10.989Z,100.00
2022-10-22T22:21:39.324Z,100.00
2022-10-22T22:24:06.193Z,100.00
2022-10-22T22:26:32.800Z,100.00
2022-10-22T22:28:59.818Z,100.00
2022-10-22T22:31:30.912Z,100.00
2022-10-22T22:33:57.967Z,100.00
2022-10-22T22:36:24.338Z,100.00
2022-10-22T22:38:53.830Z,100.00
2022-10-22T22:41:20.214Z,100.00
2022-10-22T22:43:46.631Z,100.00
2022-10-22T22:46:13.087Z,100.00
2022-10-22T22:48:40.685Z,100.00
2022-10-22T22:51:07.398Z,100.00
2022-10-22T22:53:34.506Z,100.00
2022-10-22T22:56:05.312Z,100.00
2022-10-22T22:58:31.733Z,100.00
2022-10-22T23:01:09.059Z,100.00
2022-10-22T23:03:35.463Z,100.00
2022-10-22T23:06:01.830Z,100.00
2022-10-22T23:08:28.206Z,100.00
2022-10-22T23:10:54.580Z,100.00
2022-10-22T23:13:39.803Z,100.00
2022-10-22T23:16:17.186Z,100.00
2022-10-22T23:18:44.319Z,100.00
2022-10-22T23:21:12.492Z,100.00
2022-10-22T23:23:38.895Z,100.00
2022-10-22T23:26:05.364Z,100.00
2022-10-22T23:28:31.787Z,100.00
2022-10-22T23:30:58.188Z,100.00
2022-10-22T23:33:24.564Z,100.00
2022-10-22T23:35:50.944Z,100.00
2022-10-22T23:38:17.307Z,100.00
2022-10-22T23:40:43.685Z,100.00
2022-10-22T23:43:10.070Z,100.00
2022-10-22T23:45:36.586Z,100.00
2022-10-22T23:48:02.980Z,100.00
2022-10-22T23:50:29.484Z,100.00
2022-10-22T23:52:55.961Z,100.00
2022-10-22T23:55:22.309Z,100.00
2022-10-22T23:57:48.725Z,100.00
